EKFA weather

Frooba Heliport
Frooba, Faroe Islands

Public forecast

Using degrees Celsius for public forecast. Weather courtesy of forecast.io.

Closest aviation weather report (METAR) to Frooba Heliport

Closest report is Vagar Airport, 34.3 nm (63.6 km) NNW. Retrieved 2020/04/09 13:20 UTC (0 seconds ago):

EKVG 091320Z AUTO 11015KT 8000 -RA OVC013/// 05/03 Q1027

Closest aviation forecast (TAF) to Frooba Heliport

Forecast is more than 12 hours old.

Closest forecast is Vagar Airport, 34.3 nm (63.6 km) NNW. Retrieved 2017/08/20 00:36 UTC (3 years ago):

TAF TAF EKVG 200034Z 2000/2012 33018KT 9000 FEW007 TEMPO 2003/2006 34025G35KT 4000 DZRA BKN006